Marion, SC

10:32 AM EDT on June 22, 2017 (GMT -0400)
Marion County

Weather History for KMAO - December, 2013

Change the Weather History Date:

Thursday, December 12, 2013

  Actual Average (KFLO) Record (KFLO)
Temperature  
Mean Temperature 40 °F -  
Max Temperature 50 °F 59 °F 80 °F (2007)
Min Temperature 30 °F 39 °F 11 °F (1958)
Degree Days  
Heating Degree Days 25    
Moisture  
Dew Point 27 °F    
Average Humidity 72    
Maximum Humidity 100    
Minimum Humidity 28    
Precipitation  
Precipitation 0.00 in - - ()
Sea Level Pressure  
Sea Level Pressure 30.36 in    
Wind  
Wind Speed 2 mph (North)    
Max Wind Speed 15 mph    
Max Gust Speed 20 mph    
Visibility 10 miles    
Events      
Averages and records for this station are not official NWS values.
T = Trace of Precipitation, MM = Missing Value Source: NWS Daily Summary

Daily Weather History Graph

Daily Weather History Graph

Search for Another Location

Airport or City:

Trip Planner

Search our weather history database for the weather conditions in past years. The results will help you decide how hot, cold, wet, or windy it might be!

Date:

Astronomy

Dec. 12, 2013 Rise Set
Actual Time 7:13 AM EST 5:08 PM EST
Civil Twilight 6:46 AM EST 5:36 PM EST
Nautical Twilight 6:14 AM EST 6:07 PM EST
Astronomical Twilight 5:44 AM EST 6:38 PM EST
Moon 2:06 PM EST (12/12) 2:44 AM EST (12/12)
Length of Visible Light 10h 50m
Length of Day
9h 54m
Waxing Gibbous, 80% of the Moon is Illuminated
Dec 12
Waxing Gibbous
Dec 17
Full
Dec 25
Last Quarter
Jan 1
New
Jan 7
First Quarter

Hourly Weather History & Observations

Time (EST) Temp. Windchill Dew Point Humidity Pressure Visibility Wind Dir Wind Speed Gust Speed Precip Events Conditions
12:15 AM 33.8 °F - 33.8 °F 100% 30.31 in 10.0 mi Calm Calm - N/A   Clear
12:35 AM 33.8 °F - 33.8 °F 100% 30.30 in 10.0 mi Calm Calm - N/A   Clear
12:55 AM 33.8 °F - 32.0 °F 93% 30.30 in 10.0 mi Calm Calm - N/A   Clear
1:15 AM 33.8 °F - 32.0 °F 93% 30.30 in 10.0 mi Calm Calm - N/A   Clear
1:35 AM 33.8 °F - 32.0 °F 93% 30.30 in 10.0 mi Calm Calm - N/A   Clear
1:55 AM 33.8 °F - 32.0 °F 93% 30.29 in 10.0 mi Calm Calm - N/A   Clear
2:15 AM 32.0 °F - 32.0 °F 100% 30.29 in 10.0 mi Calm Calm - N/A   Clear
2:35 AM 32.0 °F - 32.0 °F 100% 30.29 in 10.0 mi Calm Calm - N/A   Clear
2:55 AM 32.0 °F - 32.0 °F 100% 30.29 in 10.0 mi Calm Calm - N/A   Clear
3:15 AM 32.0 °F - 32.0 °F 100% 30.29 in 10.0 mi Calm Calm - N/A   Clear
3:35 AM 32.0 °F - 32.0 °F 100% 30.30 in 10.0 mi Calm Calm - N/A   Clear
3:55 AM 32.0 °F - 32.0 °F 100% 30.30 in 10.0 mi Calm Calm - N/A   Clear
4:15 AM 32.0 °F - 32.0 °F 100% 30.29 in 10.0 mi Calm Calm - N/A   Clear
4:35 AM 32.0 °F - 32.0 °F 100% 30.29 in 10.0 mi Calm Calm - N/A   Clear
4:55 AM 32.0 °F - 32.0 °F 100% 30.30 in 10.0 mi Calm Calm - N/A   Clear
5:15 AM 32.0 °F - 32.0 °F 100% 30.29 in 10.0 mi Calm Calm - N/A   Clear
5:35 AM 32.0 °F - 32.0 °F 100% 30.30 in 10.0 mi Calm Calm - N/A   Clear
5:55 AM 32.0 °F - 32.0 °F 100% 30.30 in 10.0 mi Calm Calm - N/A   Clear
6:15 AM 32.0 °F - 30.2 °F 93% 30.31 in 7.0 mi Calm Calm - N/A   Clear
6:35 AM 30.2 °F - 30.2 °F 100% 30.31 in 7.0 mi Calm Calm - N/A   Clear
6:55 AM 30.2 °F - 30.2 °F 100% 30.32 in 10.0 mi Calm Calm - N/A   Clear
7:15 AM 30.2 °F 26.7 °F 30.2 °F 100% 30.34 in 10.0 mi North 3.5 mph - N/A   Clear
7:35 AM 32.0 °F - 30.2 °F 93% 30.34 in 10.0 mi Calm Calm - N/A   Clear
7:55 AM 32.0 °F - 30.2 °F 93% 30.36 in 10.0 mi Calm Calm - N/A   Clear
8:15 AM 32.0 °F - 32.0 °F 100% 30.37 in 10.0 mi Calm Calm - N/A   Clear
8:35 AM 35.6 °F 31.7 °F 32.0 °F 87% 30.38 in 10.0 mi North 4.6 mph - N/A   Clear
8:55 AM 37.4 °F 32.1 °F 32.0 °F 81% 30.40 in 10.0 mi North 6.9 mph - N/A   Clear
9:15 AM 39.2 °F 33.6 °F 30.2 °F 70% 30.41 in 10.0 mi North 8.1 mph - N/A   Clear
9:35 AM 41.0 °F 34.7 °F 30.2 °F 65% 30.42 in 10.0 mi North 10.4 mph - N/A   Clear
9:55 AM 41.0 °F 35.2 °F 28.4 °F 61% 30.42 in 10.0 mi North 9.2 mph 16.1 mph N/A   Clear
10:15 AM 42.8 °F 36.6 °F 26.6 °F 53% 30.43 in 10.0 mi North 11.5 mph - N/A   Clear
10:35 AM 44.6 °F 38.4 °F 26.6 °F 49% 30.42 in 10.0 mi North 12.7 mph 16.1 mph N/A   Clear
10:55 AM 44.6 °F 39.2 °F 26.6 °F 49% 30.42 in 10.0 mi NNE 10.4 mph - N/A   Clear
11:15 AM 44.6 °F 37.8 °F 23.0 °F 43% 30.41 in 10.0 mi North 15.0 mph 19.6 mph N/A   Clear
11:35 AM 44.6 °F 38.8 °F 23.0 °F 43% 30.41 in 10.0 mi North 11.5 mph - N/A   Clear
11:55 AM 46.4 °F 43.5 °F 23.0 °F 40% 30.39 in 10.0 mi North 5.8 mph - N/A   Clear
12:15 PM 46.4 °F 41.9 °F 23.0 °F 40% 30.38 in 10.0 mi North 9.2 mph - N/A   Clear
12:35 PM 46.4 °F 40.4 °F 19.4 °F 34% 30.37 in 10.0 mi NNW 13.8 mph - N/A   Clear
12:55 PM 46.4 °F 43.5 °F 21.2 °F 37% 30.36 in 10.0 mi NNW 5.8 mph - N/A   Clear
1:15 PM 48.2 °F - 19.4 °F 32% 30.36 in 10.0 mi North 9.2 mph - N/A   Clear
1:35 PM 48.2 °F - 19.4 °F 32% 30.35 in 10.0 mi NNW 8.1 mph - N/A   Clear
1:55 PM 50.0 °F - 17.6 °F 28% 30.34 in 10.0 mi NW 10.4 mph - N/A   Clear
2:15 PM 50.0 °F - 19.4 °F 30% 30.34 in 10.0 mi North 5.8 mph - N/A   Clear
2:35 PM 50.0 °F - 19.4 °F 30% 30.34 in 10.0 mi North 6.9 mph - N/A   Clear
2:55 PM 50.0 °F - 19.4 °F 30% 30.33 in 10.0 mi NNW 10.4 mph 16.1 mph N/A   Clear
3:15 PM 50.0 °F - 17.6 °F 28% 30.33 in 10.0 mi NNW 10.4 mph - N/A   Clear
3:35 PM 50.0 °F - 17.6 °F 28% 30.33 in 10.0 mi NNW 10.4 mph 16.1 mph N/A   Clear
3:55 PM 48.2 °F - 17.6 °F 30% 30.33 in 10.0 mi NNW 8.1 mph - N/A   Clear
4:15 PM 48.2 °F - 17.6 °F 30% 30.35 in 10.0 mi North 9.2 mph - N/A   Clear
4:35 PM 48.2 °F - 19.4 °F 32% 30.36 in 10.0 mi NNW 6.9 mph - N/A   Clear
4:55 PM 46.4 °F 43.5 °F 19.4 °F 34% 30.36 in 10.0 mi North 5.8 mph - N/A   Clear
5:15 PM 44.6 °F 43.1 °F 19.4 °F 37% 30.36 in 10.0 mi NNW 3.5 mph - N/A   Clear
5:35 PM 44.6 °F 43.1 °F 21.2 °F 39% 30.37 in 10.0 mi NNW 3.5 mph - N/A   Clear
5:55 PM 41.0 °F - 26.6 °F 57% 30.37 in 10.0 mi Calm Calm - N/A   Clear
6:15 PM 37.4 °F 34.9 °F 28.4 °F 70% 30.38 in 10.0 mi North 3.5 mph - N/A   Clear
6:35 PM 35.6 °F 32.8 °F 28.4 °F 75% 30.38 in 10.0 mi North 3.5 mph - N/A   Clear
6:55 PM 35.6 °F 32.8 °F 28.4 °F 75% 30.39 in 10.0 mi North 3.5 mph - N/A   Clear
7:15 PM 35.6 °F - 28.4 °F 75% 30.38 in 10.0 mi Calm Calm - N/A   Clear
7:35 PM 33.8 °F - 28.4 °F 81% 30.39 in 10.0 mi Calm Calm - N/A   Clear
7:55 PM 33.8 °F - 28.4 °F 81% 30.39 in 10.0 mi Calm Calm - N/A   Clear
8:15 PM 33.8 °F - 28.4 °F 81% 30.40 in 10.0 mi Calm Calm - N/A   Clear
8:35 PM 32.0 °F - 28.4 °F 87% 30.40 in 10.0 mi Calm Calm - N/A   Clear
8:55 PM 32.0 °F - 28.4 °F 87% 30.41 in 10.0 mi Calm Calm - N/A   Clear
9:15 PM 32.0 °F - 28.4 °F 87% 30.41 in 10.0 mi Calm Calm - N/A   Clear
9:35 PM 32.0 °F - 28.4 °F 87% 30.41 in 10.0 mi Calm Calm - N/A   Clear
9:55 PM 32.0 °F - 26.6 °F 80% 30.40 in 10.0 mi Calm Calm - N/A   Clear
10:15 PM 32.0 °F - 28.4 °F 87% 30.40 in 10.0 mi Calm Calm - N/A   Clear
10:35 PM 32.0 °F - 28.4 °F 87% 30.40 in 10.0 mi Calm Calm - N/A   Clear
10:55 PM 30.2 °F - 28.4 °F 93% 30.40 in 10.0 mi Calm Calm - N/A   Clear
11:15 PM 30.2 °F - 28.4 °F 93% 30.39 in 10.0 mi Calm Calm - N/A   Clear
11:35 PM 30.2 °F - 28.4 °F 93% 30.39 in 10.0 mi Calm Calm - N/A   Clear
11:55 PM 30.2 °F - 26.6 °F 86% 30.39 in 10.0 mi Calm Calm - N/A   Clear